createdAt,value
2022-08-25T00:02:03.205Z,24.17
2022-08-25T00:04:33.740Z,18.08
2022-08-25T00:07:04.541Z,17.38
2022-08-25T00:09:34.024Z,19.17
2022-08-25T00:12:01.577Z,11.93
2022-08-25T00:14:33.704Z,22.08
2022-08-25T00:17:01.729Z,18.27
2022-08-25T00:19:32.607Z,23.48
2022-08-25T00:22:01.044Z,18.40
2022-08-25T00:24:29.679Z,28.27
2022-08-25T00:26:58.672Z,20.00
2022-08-25T00:29:27.914Z,26.15
2022-08-25T00:31:56.085Z,16.35
2022-08-25T00:34:28.601Z,29.98
2022-08-25T00:36:56.118Z,20.80
2022-08-25T00:39:24.427Z,18.83
2022-08-25T00:41:54.198Z,21.30
2022-08-25T00:44:21.689Z,16.83
2022-08-25T00:46:53.905Z,22.50
2022-08-25T00:49:44.894Z,18.40
2022-08-25T00:52:22.339Z,20.92
2022-08-25T00:55:05.897Z,14.93
2022-08-25T00:57:46.636Z,21.58
2022-08-25T01:00:19.594Z,18.25
2022-08-25T01:02:47.286Z,21.75
2022-08-25T01:05:15.018Z,16.25
2022-08-25T01:07:44.640Z,16.85
2022-08-25T01:10:13.666Z,14.35
2022-08-25T01:12:41.702Z,21.48
2022-08-25T01:15:11.113Z,20.95
2022-08-25T01:17:53.887Z,21.90
2022-08-25T01:20:23.931Z,20.83
2022-08-25T01:22:56.816Z,20.73
2022-08-25T01:25:42.724Z,17.08
2022-08-25T01:28:10.429Z,17.98
2022-08-25T01:30:38.427Z,20.23
2022-08-25T01:33:07.646Z,19.42
2022-08-25T01:35:35.979Z,27.67
2022-08-25T01:38:05.396Z,11.52
2022-08-25T01:40:32.860Z,19.83
2022-08-25T01:43:14.997Z,25.40
2022-08-25T01:45:46.340Z,18.98
2022-08-25T01:48:15.002Z,22.02
2022-08-25T01:50:44.011Z,14.63
2022-08-25T01:53:28.439Z,15.38
2022-08-25T01:56:02.219Z,17.65
2022-08-25T01:58:34.731Z,22.00
2022-08-25T02:01:05.878Z,21.98
2022-08-25T02:03:33.292Z,14.00
2022-08-25T02:06:01.371Z,23.33
2022-08-25T02:08:31.855Z,26.98
2022-08-25T02:10:59.084Z,20.85
2022-08-25T02:13:26.809Z,20.60
2022-08-25T02:16:00.909Z,22.33
2022-08-25T02:18:28.370Z,18.92
2022-08-25T02:20:55.615Z,13.55
2022-08-25T02:23:22.935Z,23.48
2022-08-25T02:25:49.967Z,25.50
2022-08-25T02:28:17.386Z,22.20
2022-08-25T02:30:45.127Z,22.42
2022-08-25T02:33:12.469Z,16.10
2022-08-25T02:35:39.905Z,16.73
2022-08-25T02:38:07.930Z,26.75
2022-08-25T02:40:36.037Z,23.02
2022-08-25T02:43:03.930Z,18.33
2022-08-25T02:45:31.071Z,17.73
2022-08-25T02:47:58.222Z,15.07
2022-08-25T02:50:26.273Z,23.88
2022-08-25T02:52:53.434Z,15.95
2022-08-25T02:55:21.514Z,26.88
2022-08-25T02:57:48.892Z,23.48
2022-08-25T03:00:17.433Z,25.48
2022-08-25T03:02:47.336Z,27.65
2022-08-25T03:05:16.096Z,22.88
2022-08-25T03:07:43.654Z,23.45
2022-08-25T03:10:16.581Z,20.23
2022-08-25T03:12:43.836Z,30.05
2022-08-25T03:15:13.220Z,18.25
2022-08-25T03:17:40.935Z,23.42
2022-08-25T03:20:13.182Z,23.17
2022-08-25T03:22:40.519Z,19.95
2022-08-25T03:25:28.312Z,20.20
2022-08-25T03:27:56.024Z,22.60
2022-08-25T03:30:23.425Z,25.08
2022-08-25T03:32:50.839Z,28.67
2022-08-25T03:35:18.721Z,19.17
2022-08-25T03:37:45.981Z,24.63
2022-08-25T03:40:16.486Z,24.35
2022-08-25T03:42:45.972Z,18.65
2022-08-25T03:45:16.544Z,25.58
2022-08-25T03:47:47.532Z,24.52
2022-08-25T03:50:16.701Z,24.90
2022-08-25T03:52:44.380Z,22.85
2022-08-25T03:55:14.771Z,26.63
2022-08-25T03:57:42.375Z,20.58
2022-08-25T04:00:12.313Z,22.63
2022-08-25T04:02:41.007Z,27.88
2022-08-25T04:05:10.224Z,32.70
2022-08-25T04:07:38.541Z,20.48
2022-08-25T04:10:08.698Z,22.65
2022-08-25T04:12:37.925Z,23.73
2022-08-25T04:15:07.613Z,22.00
2022-08-25T04:17:38.050Z,23.38
2022-08-25T04:20:08.312Z,23.87
2022-08-25T04:22:36.838Z,26.58
2022-08-25T04:25:07.134Z,29.58
2022-08-25T04:27:34.417Z,17.73
2022-08-25T04:30:01.892Z,17.30
2022-08-25T04:32:31.519Z,31.15
2022-08-25T04:34:59.451Z,20.52
2022-08-25T04:37:26.847Z,19.80
2022-08-25T04:39:54.282Z,26.70
2022-08-25T04:42:21.975Z,24.25
2022-08-25T04:44:50.185Z,24.42
2022-08-25T04:47:17.791Z,26.33
2022-08-25T04:49:45.319Z,18.50
2022-08-25T04:52:13.180Z,21.17
2022-08-25T04:54:43.014Z,30.15
2022-08-25T04:57:10.572Z,29.05
2022-08-25T04:59:37.862Z,33.45
2022-08-25T05:02:06.875Z,27.17
2022-08-25T05:04:36.212Z,24.83
2022-08-25T05:07:04.534Z,30.80
2022-08-25T05:09:33.030Z,30.15
2022-08-25T05:12:02.906Z,28.58
2022-08-25T05:14:32.090Z,31.98
2022-08-25T05:17:03.160Z,24.45
2022-08-25T05:19:31.419Z,33.92
2022-08-25T05:21:58.601Z,24.35
2022-08-25T05:24:26.858Z,25.85
2022-08-25T05:26:54.316Z,29.48
2022-08-25T05:29:21.823Z,32.58
2022-08-25T05:31:50.846Z,35.65
2022-08-25T05:34:19.662Z,36.55
2022-08-25T05:36:47.679Z,32.58
2022-08-25T05:39:15.102Z,37.53
2022-08-25T05:41:42.490Z,27.85
2022-08-25T05:44:09.884Z,34.00
2022-08-25T05:46:37.339Z,29.80
2022-08-25T05:49:04.694Z,34.45
2022-08-25T05:51:31.893Z,30.15
2022-08-25T05:53:59.412Z,42.67
2022-08-25T05:56:26.689Z,41.58
2022-08-25T05:58:54.325Z,40.47
2022-08-25T06:01:45.097Z,36.63
2022-08-25T06:04:16.438Z,48.78
2022-08-25T06:09:11.291Z,33.15
2022-08-25T06:11:40.434Z,43.50
2022-08-25T06:14:09.628Z,38.17
2022-08-25T06:16:39.114Z,50.67
2022-08-25T06:19:08.658Z,44.28
2022-08-25T06:21:37.406Z,46.47
2022-08-25T06:24:05.392Z,55.63
2022-08-25T06:26:33.113Z,47.92
2022-08-25T06:29:00.359Z,33.17
2022-08-25T06:31:27.776Z,57.40
2022-08-25T06:33:55.434Z,40.03
2022-08-25T06:36:22.478Z,53.85
2022-08-25T06:38:49.883Z,40.45
2022-08-25T06:41:20.810Z,48.20
2022-08-25T06:43:51.792Z,52.67
2022-08-25T06:46:34.684Z,38.58
2022-08-25T06:49:06.278Z,36.30
2022-08-25T06:51:37.685Z,44.78
2022-08-25T06:54:06.666Z,35.28
2022-08-25T06:56:34.444Z,45.53
2022-08-25T06:59:03.491Z,27.20
2022-08-25T07:01:32.181Z,33.72
2022-08-25T07:04:01.728Z,50.58
2022-08-25T07:06:32.491Z,56.80
2022-08-25T07:09:00.226Z,36.33
2022-08-25T07:11:28.377Z,42.50
2022-08-25T07:13:55.705Z,44.85
2022-08-25T07:16:24.414Z,34.38
2022-08-25T07:19:00.201Z,38.78
2022-08-25T07:21:33.117Z,24.17
2022-08-25T07:24:01.797Z,41.30
2022-08-25T07:26:39.340Z,44.15
2022-08-25T07:29:16.107Z,48.78
2022-08-25T07:31:45.263Z,31.50
2022-08-25T07:34:34.723Z,44.00
2022-08-25T07:37:06.239Z,37.28
2022-08-25T07:39:34.884Z,31.98
2022-08-25T07:42:02.743Z,41.95
2022-08-25T07:44:29.985Z,42.08
2022-08-25T07:46:57.860Z,43.30
2022-08-25T07:49:26.620Z,38.00
2022-08-25T07:52:06.452Z,29.30
2022-08-25T07:54:37.969Z,25.50
2022-08-25T07:57:10.355Z,55.97
2022-08-25T07:59:42.567Z,31.60
2022-08-25T08:02:18.050Z,28.15
2022-08-25T08:04:49.913Z,27.83
2022-08-25T08:07:36.956Z,40.22
2022-08-25T08:13:02.360Z,38.55
2022-08-25T08:15:30.563Z,35.20
2022-08-25T08:17:59.769Z,31.08
2022-08-25T08:20:29.107Z,23.85
2022-08-25T08:22:56.740Z,35.95
2022-08-25T08:25:24.298Z,33.17
2022-08-25T08:27:55.418Z,27.38
2022-08-25T08:30:26.322Z,35.15
2022-08-25T08:33:11.793Z,31.73
2022-08-25T08:35:43.433Z,38.92
2022-08-25T08:38:17.261Z,34.95
2022-08-25T08:41:28.236Z,29.00
2022-08-25T08:44:22.443Z,33.83
2022-08-25T08:46:55.048Z,28.85
2022-08-25T08:49:38.041Z,38.88
2022-08-25T08:52:09.302Z,37.25
2022-08-25T08:54:42.587Z,38.85
2022-08-25T08:57:16.730Z,48.92
2022-08-25T09:00:09.520Z,36.70
2022-08-25T09:03:10.897Z,22.90
2022-08-25T09:05:47.642Z,38.53
2022-08-25T09:08:20.262Z,25.77
2022-08-25T09:11:20.006Z,35.33
2022-08-25T09:13:53.497Z,34.72
2022-08-25T09:16:57.275Z,22.92
2022-08-25T09:19:43.077Z,33.00
2022-08-25T09:22:35.520Z,19.67
2022-08-25T09:25:12.712Z,43.45
2022-08-25T09:27:58.993Z,25.60
2022-08-25T09:30:33.111Z,31.50
2022-08-25T09:33:05.206Z,39.83
2022-08-25T09:35:37.512Z,24.25
2022-08-25T09:38:09.568Z,23.38
2022-08-25T09:40:40.814Z,23.33
2022-08-25T09:43:35.428Z,25.65
2022-08-25T09:46:05.778Z,28.17
2022-08-25T09:48:43.086Z,34.53
2022-08-25T09:51:38.344Z,26.10
2022-08-25T09:54:13.929Z,23.30
2022-08-25T09:56:53.788Z,27.92
2022-08-25T09:59:35.932Z,27.48
2022-08-25T10:02:23.987Z,26.98
2022-08-25T10:04:52.461Z,29.25
2022-08-25T10:07:30.512Z,36.22
2022-08-25T10:10:07.838Z,32.55
2022-08-25T10:12:42.599Z,32.90
2022-08-25T10:15:30.866Z,32.28
2022-08-25T10:18:26.609Z,31.80
2022-08-25T10:21:13.419Z,24.42
2022-08-25T10:23:46.648Z,25.20
2022-08-25T10:26:27.984Z,25.83
2022-08-25T10:29:05.022Z,29.43
2022-08-25T10:31:41.490Z,22.95
2022-08-25T10:34:54.820Z,25.02
2022-08-25T10:37:47.506Z,26.67
2022-08-25T10:40:25.081Z,27.20
2022-08-25T10:43:08.580Z,25.92
2022-08-25T10:45:48.021Z,23.95
2022-08-25T10:48:30.843Z,19.05
2022-08-25T10:51:24.896Z,23.23
2022-08-25T10:54:13.172Z,14.30
2022-08-25T10:57:00.915Z,13.98
2022-08-25T10:59:53.072Z,21.40
2022-08-25T11:02:34.406Z,14.57
2022-08-25T11:05:43.063Z,19.38
2022-08-25T11:08:31.104Z,20.20
2022-08-25T11:11:24.458Z,29.70
2022-08-25T11:14:09.222Z,22.42
2022-08-25T11:16:45.446Z,23.15
2022-08-25T11:19:33.794Z,27.17
2022-08-25T11:22:38.532Z,16.63
2022-08-25T11:25:30.485Z,24.75
2022-08-25T11:28:16.723Z,27.13
2022-08-25T11:30:45.184Z,23.55
2022-08-25T11:33:20.095Z,14.82
2022-08-25T11:35:54.582Z,20.65
2022-08-25T11:38:57.654Z,24.50
2022-08-25T11:42:12.562Z,18.77
2022-08-25T11:44:45.521Z,11.20
2022-08-25T11:47:48.029Z,13.95
2022-08-25T11:50:35.350Z,17.38
2022-08-25T11:53:11.787Z,16.30
2022-08-25T11:55:43.797Z,20.75
2022-08-25T11:58:24.157Z,20.25
2022-08-25T12:00:54.286Z,8.98
2022-08-25T12:03:36.488Z,29.23
2022-08-25T12:06:28.022Z,22.13
2022-08-25T12:09:01.675Z,24.65
2022-08-25T12:11:52.401Z,25.38
2022-08-25T12:14:23.109Z,21.08
2022-08-25T12:16:56.738Z,22.58
2022-08-25T12:19:30.456Z,24.58
2022-08-25T12:22:19.375Z,29.52
2022-08-25T12:25:03.541Z,20.88
2022-08-25T12:27:38.336Z,18.70
2022-08-25T12:30:26.300Z,39.15
2022-08-25T12:33:16.885Z,27.88
2022-08-25T12:36:01.106Z,37.33
2022-08-25T12:38:28.455Z,28.70
2022-08-25T12:41:10.826Z,21.00
2022-08-25T12:43:46.243Z,25.27
2022-08-25T12:46:19.943Z,28.05
2022-08-25T12:49:00.845Z,27.77
2022-08-25T12:51:49.867Z,18.63
2022-08-25T12:54:55.554Z,18.23
2022-08-25T12:57:42.097Z,24.38
2022-08-25T13:00:42.585Z,29.52
2022-08-25T13:03:31.330Z,48.40
2022-08-25T13:06:26.868Z,33.97
2022-08-25T13:09:22.390Z,24.90
2022-08-25T13:12:10.202Z,22.42
2022-08-25T13:14:44.161Z,22.98
2022-08-25T13:17:12.650Z,30.60
2022-08-25T13:19:39.857Z,25.48
2022-08-25T13:22:16.097Z,32.53
2022-08-25T13:24:47.479Z,23.85
2022-08-25T13:27:29.840Z,24.20
2022-08-25T13:30:03.928Z,56.70
2022-08-25T13:32:39.700Z,40.10
2022-08-25T13:35:21.470Z,23.52
2022-08-25T13:37:50.298Z,28.63
2022-08-25T13:40:25.938Z,23.23
2022-08-25T13:43:01.092Z,39.38
2022-08-25T13:45:41.116Z,41.47
2022-08-25T13:48:22.509Z,28.67
2022-08-25T13:50:52.681Z,39.63
2022-08-25T13:53:30.495Z,42.15
2022-08-25T13:56:02.384Z,43.25
2022-08-25T13:58:39.018Z,25.33
2022-08-25T14:01:23.262Z,30.65
2022-08-25T14:04:33.286Z,39.15
2022-08-25T14:07:25.924Z,31.30
2022-08-25T14:10:05.072Z,34.08
2022-08-25T14:12:44.800Z,27.13
2022-08-25T14:15:29.659Z,27.27
2022-08-25T14:18:01.683Z,43.28
2022-08-25T14:20:32.247Z,28.25
2022-08-25T14:23:05.746Z,24.73
2022-08-25T14:25:40.450Z,23.52
2022-08-25T14:28:17.011Z,32.35
2022-08-25T14:30:52.268Z,30.35
2022-08-25T14:33:23.870Z,40.63
2022-08-25T14:35:54.276Z,48.65
2022-08-25T14:38:22.740Z,45.97
2022-08-25T14:40:51.270Z,29.80
2022-08-25T14:43:18.550Z,25.95
2022-08-25T14:45:52.003Z,33.00
2022-08-25T14:48:42.321Z,30.02
2022-08-25T14:51:12.715Z,32.90
2022-08-25T14:53:41.041Z,35.50
2022-08-25T14:56:10.268Z,34.60
2022-08-25T14:58:51.238Z,37.67
2022-08-25T15:01:29.221Z,35.55
2022-08-25T15:04:19.679Z,33.38
2022-08-25T15:06:51.613Z,28.70
2022-08-25T15:09:21.171Z,44.55
2022-08-25T15:11:51.821Z,29.23
2022-08-25T15:14:28.558Z,30.48
2022-08-25T15:17:02.029Z,33.70
2022-08-25T15:19:29.961Z,28.15
2022-08-25T15:21:57.951Z,29.63
2022-08-25T15:24:28.385Z,28.90
2022-08-25T15:27:01.202Z,27.70
2022-08-25T15:29:31.208Z,44.22
2022-08-25T15:32:00.618Z,41.83
2022-08-25T15:34:28.994Z,25.30
2022-08-25T15:37:07.004Z,31.42
2022-08-25T15:39:35.207Z,39.05
2022-08-25T15:42:03.182Z,38.28
2022-08-25T15:44:31.726Z,33.28
2022-08-25T15:47:00.576Z,52.50
2022-08-25T15:49:34.164Z,25.20
2022-08-25T15:52:02.081Z,29.48
2022-08-25T15:54:30.377Z,31.90
2022-08-25T15:56:58.014Z,30.00
2022-08-25T15:59:27.883Z,46.78
2022-08-25T16:01:55.545Z,36.20
2022-08-25T16:04:29.165Z,52.88
2022-08-25T16:06:57.275Z,39.47
2022-08-25T16:09:26.138Z,34.88
2022-08-25T16:11:56.619Z,46.25
2022-08-25T16:14:26.316Z,48.83
2022-08-25T16:16:58.011Z,44.95
2022-08-25T16:19:29.284Z,50.83
2022-08-25T16:21:57.607Z,47.13
2022-08-25T16:24:25.653Z,57.30
2022-08-25T16:26:56.043Z,42.90
2022-08-25T16:29:24.049Z,59.42
2022-08-25T16:31:53.238Z,58.47
2022-08-25T16:34:24.434Z,50.17
2022-08-25T16:36:53.549Z,68.50
2022-08-25T16:39:22.026Z,55.05
2022-08-25T16:41:52.665Z,43.47
2022-08-25T16:44:22.636Z,46.90
2022-08-25T16:46:54.276Z,36.40
2022-08-25T16:49:24.179Z,63.45
2022-08-25T16:51:56.954Z,43.92
2022-08-25T16:54:45.279Z,53.78
2022-08-25T16:57:13.417Z,59.60
2022-08-25T16:59:42.558Z,45.88
2022-08-25T17:02:17.690Z,59.22
2022-08-25T17:04:48.770Z,56.70
2022-08-25T17:07:16.441Z,49.63
2022-08-25T17:09:51.506Z,77.47
2022-08-25T17:12:20.611Z,55.58
2022-08-25T17:14:47.818Z,50.78
2022-08-25T17:17:15.105Z,49.15
2022-08-25T17:19:45.847Z,49.08
2022-08-25T17:22:15.850Z,54.28
2022-08-25T17:27:26.777Z,49.85
2022-08-25T17:29:54.738Z,55.25
2022-08-25T17:32:28.897Z,46.80
2022-08-25T17:34:59.447Z,45.72
2022-08-25T17:37:27.047Z,67.05
2022-08-25T17:39:56.795Z,62.08
2022-08-25T17:42:31.855Z,62.08
2022-08-25T17:44:58.993Z,65.90
2022-08-25T17:47:27.720Z,81.10
2022-08-25T17:49:54.930Z,75.43
2022-08-25T17:52:25.668Z,63.00
2022-08-25T17:54:53.235Z,63.35
2022-08-25T17:57:21.358Z,62.13
2022-08-25T17:59:48.666Z,56.40
2022-08-25T18:02:15.803Z,59.83
2022-08-25T18:04:43.509Z,59.10
2022-08-25T18:07:10.691Z,45.80
2022-08-25T18:09:38.114Z,40.65
2022-08-25T18:12:05.736Z,64.45
2022-08-25T18:14:33.354Z,60.65
2022-08-25T18:17:03.757Z,61.85
2022-08-25T18:19:32.356Z,54.63
2022-08-25T18:22:04.340Z,45.67
2022-08-25T18:24:32.590Z,43.42
2022-08-25T18:26:59.656Z,58.03
2022-08-25T18:29:27.348Z,44.88
2022-08-25T18:31:59.728Z,56.22
2022-08-25T18:34:27.815Z,58.03
2022-08-25T18:37:17.871Z,46.95
2022-08-25T18:40:04.047Z,59.97
2022-08-25T18:42:35.939Z,58.63
2022-08-25T18:45:06.162Z,53.10
2022-08-25T18:47:33.983Z,54.47
2022-08-25T18:50:04.464Z,65.60
2022-08-25T18:52:32.187Z,55.58
2022-08-25T18:55:00.380Z,36.38
2022-08-25T18:57:28.870Z,43.58
2022-08-25T18:59:56.129Z,44.28
2022-08-25T19:02:23.431Z,54.42
2022-08-25T19:04:52.785Z,52.20
2022-08-25T19:07:20.207Z,54.80
2022-08-25T19:09:47.480Z,69.53
2022-08-25T19:12:22.629Z,49.78
2022-08-25T19:14:50.661Z,59.05
2022-08-25T19:17:17.833Z,56.58
2022-08-25T19:19:45.186Z,55.50
2022-08-25T19:22:21.342Z,63.67
2022-08-25T19:24:59.961Z,44.83
2022-08-25T19:27:27.288Z,54.88
2022-08-25T19:29:54.433Z,59.42
2022-08-25T19:32:21.756Z,47.95
2022-08-25T19:34:51.535Z,45.53
2022-08-25T19:37:19.242Z,55.40
2022-08-25T19:39:52.957Z,45.92
2022-08-25T19:42:35.337Z,46.08
2022-08-25T19:45:08.204Z,38.03
2022-08-25T19:47:35.461Z,46.97
2022-08-25T19:50:02.827Z,42.22
2022-08-25T19:52:31.142Z,27.95
2022-08-25T19:55:00.119Z,45.75
2022-08-25T19:57:42.243Z,39.42
2022-08-25T20:00:15.746Z,49.15
2022-08-25T20:02:44.492Z,36.35
2022-08-25T20:05:13.150Z,37.10
2022-08-25T20:07:41.444Z,40.78
2022-08-25T20:10:14.265Z,44.45
2022-08-25T20:12:42.963Z,52.85
2022-08-25T20:15:11.978Z,52.03
2022-08-25T20:17:41.608Z,42.80
2022-08-25T20:20:12.062Z,57.08
2022-08-25T20:22:40.060Z,46.07
2022-08-25T20:25:15.271Z,63.58
2022-08-25T20:27:51.403Z,64.75
2022-08-25T20:30:25.249Z,43.03
2022-08-25T20:32:54.844Z,43.88
2022-08-25T20:35:26.683Z,38.05
2022-08-25T20:37:56.254Z,72.22
2022-08-25T20:40:27.270Z,50.80
2022-08-25T20:42:55.848Z,33.58
2022-08-25T20:45:23.496Z,42.63
2022-08-25T20:47:51.507Z,47.35
2022-08-25T20:50:19.952Z,41.55
2022-08-25T20:52:48.515Z,46.88
2022-08-25T20:55:18.914Z,33.85
2022-08-25T20:57:46.882Z,40.03
2022-08-25T21:00:15.994Z,39.60
2022-08-25T21:02:46.348Z,50.63
2022-08-25T21:05:14.401Z,50.20
2022-08-25T21:07:41.969Z,56.83
2022-08-25T21:10:14.515Z,44.40
2022-08-25T21:12:42.920Z,49.17
2022-08-25T21:15:11.272Z,29.85
2022-08-25T21:17:39.139Z,40.15
2022-08-25T21:20:08.346Z,43.33
2022-08-25T21:22:38.075Z,46.60
2022-08-25T21:25:06.895Z,46.55
2022-08-25T21:27:34.307Z,24.98
2022-08-25T21:30:01.589Z,40.78
2022-08-25T21:32:31.225Z,29.67
2022-08-25T21:34:58.504Z,38.55
2022-08-25T21:37:26.778Z,64.30
2022-08-25T21:39:54.364Z,39.55
2022-08-25T21:42:24.903Z,35.95
2022-08-25T21:44:52.862Z,31.60
2022-08-25T21:47:21.684Z,23.83
2022-08-25T21:49:51.050Z,22.00
2022-08-25T21:52:18.983Z,33.35
2022-08-25T21:54:51.136Z,24.27
2022-08-25T21:57:23.637Z,29.88
2022-08-25T21:59:51.787Z,31.73
2022-08-25T22:02:22.632Z,35.15
2022-08-25T22:07:24.471Z,33.10
2022-08-25T22:09:52.482Z,27.37
2022-08-25T22:12:20.024Z,27.38
2022-08-25T22:14:47.207Z,27.08
2022-08-25T22:17:17.052Z,32.10
2022-08-25T22:19:48.427Z,31.48
2022-08-25T22:22:22.482Z,28.70
2022-08-25T22:24:51.106Z,29.58
2022-08-25T22:27:23.446Z,24.42
2022-08-25T22:29:52.245Z,36.63
2022-08-25T22:32:20.164Z,18.90
2022-08-25T22:34:48.330Z,26.27
2022-08-25T22:37:18.030Z,25.13
2022-08-25T22:39:46.388Z,21.45
2022-08-25T22:42:14.262Z,24.27
2022-08-25T22:44:44.676Z,33.47
2022-08-25T22:47:13.216Z,30.90
2022-08-25T22:49:40.712Z,21.75
2022-08-25T22:52:09.419Z,27.13
2022-08-25T22:54:41.308Z,29.75
2022-08-25T22:57:08.561Z,14.32
2022-08-25T22:59:35.711Z,24.52
2022-08-25T23:02:03.197Z,14.35
2022-08-25T23:04:30.616Z,25.35
2022-08-25T23:06:57.817Z,21.27
2022-08-25T23:09:25.371Z,27.95
2022-08-25T23:11:52.641Z,21.00
2022-08-25T23:14:20.854Z,16.27
2022-08-25T23:16:50.255Z,24.23
2022-08-25T23:19:18.280Z,30.48
2022-08-25T23:22:03.970Z,25.13
2022-08-25T23:24:32.020Z,30.40
2022-08-25T23:27:00.922Z,17.20
2022-08-25T23:29:29.502Z,17.83
2022-08-25T23:31:58.507Z,17.77
2022-08-25T23:34:26.776Z,29.13
2022-08-25T23:36:57.185Z,17.90
2022-08-25T23:39:24.746Z,22.33
2022-08-25T23:41:52.765Z,28.98
2022-08-25T23:44:22.386Z,19.33
2022-08-25T23:46:52.932Z,19.65
2022-08-25T23:49:24.469Z,25.33
2022-08-25T23:51:53.020Z,18.70
2022-08-25T23:54:21.877Z,30.65
2022-08-25T23:57:00.146Z,27.80
2022-08-25T23:59:30.134Z,18.77
